Tiempo atmosférico en la estación meteorológica de Fuengirola, Málaga (3 m.)



Fecha
DESCASC
Temp. máxima en grados centígrados (hora)
DESCASC
Temp. mínima en grados centígrados (hora)
DESCASC
Temp. media en grados centígrados
DESCASC
Racha de viento máxima en m/sg (hora)
DESCASC
Velocidad máxima media en intervalos de 10 minutos(hora)
DESCASC
Precipitaciones diarias en mm
DESCASC
Precipitaciones de 00:00 a 06:00 en mm
DESCASC
Precipitaciones de 06:00 a 12:00 en mm
DESCASC
Precipitaciones de 12:00 a 18:00 en mm
DESCASC
Precipitaciones de 18:00 a 24:00 en mm
DESCASC
22-11-2020 18.3 (15:50) 15.3 (21:30) 16.8 10 (00:30) 7.5 (02:30) 0 0 0 0 0
21-11-2020 19.1 (16:10) 15.4 (03:10) 17.3 10.83 (23:30) 7.78 (23:10) 0 0 0 0 0
20-11-2020 20.4 (16:20) 15.6 (04:30) 18 4.44 (14:50) 3.33 (13:30) 0 0 0 0 0
19-11-2020 19.9 (16:50) 15.3 (00:00) 17.6 6.67 (16:40) 4.72 (11:00) 0 0 0 0 0
18-11-2020 20.1 (16:00) 16.3 (00:00) 18.2 5.28 (12:50) 3.89 (12:50) 0 0 0 0 0
17-11-2020 21.2 (14:30) 16.6 (00:00) 18.9 4.17 (07:40) 2.5 (15:10) 0 0 0 0 0
16-11-2020 22.2 (16:50) 15.5 (00:00) 18.9 4.44 (18:30) 2.78 (22:30) 0 0 0 0 0
15-11-2020 21.2 (17:00) 15.6 (00:00) 18.4 4.17 (05:40) 2.5 (00:40) 0 0 0 0 0
14-11-2020 19.3 (12:20) 16.5 (00:00) 17.9 3.33 (23:30) 2.22 (23:40) 1.4 0 0.1 1.3 0
13-11-2020 20.2 (13:40) 18 (00:00) 19.1 5 (01:00) 3.06 (01:50) 0 0 0 0 0
12-11-2020 19.7 (15:10) 17.2 (00:00) 18.5 7.22 (11:00) 5 (08:50) 0 0 0 0 0
11-11-2020 -- (--) -- (--) -- 8.89 (00:10) 5.28 (14:30) 0 0 0 0 0
10-11-2020 20.2 (16:20) 16.6 (00:00) 18.4 6.67 (12:30) 5 (12:30) 0 0 0 0 0
09-11-2020 19.9 (16:40) 14.4 (00:00) 17.1 5.83 (14:40) 3.89 (11:30) 0 0 0 0 0
08-11-2020 20.1 (15:20) 14.8 (00:00) 17.5 5.83 (04:20) 2.22 (01:50) 0 0 0 0 0
07-11-2020 21.2 (17:30) 16.7 (00:00) 19 8.33 (11:40) 4.72 (04:10) 0.3 0.2 0.1 0 0
06-11-2020 23.4 (15:00) 17.3 (00:00) 20.3 17.22 (15:10) 8.89 (14:40) 4.6 0 0 0 4.6
05-11-2020 -- (--) -- (--) -- -- (--) -- (--) -- -- -- 0 0
04-11-2020 19.9 (13:40) 16.4 (00:00) 18.1 15.28 (23:10) 10.28 (23:59) 4.3 0 0 0 4.3
03-11-2020 18.5 (16:50) 13.6 (00:00) 16.1 4.44 (15:00) 3.33 (15:00) 0 0 0 0 0
02-11-2020 18.7 (16:30) 13.9 (00:00) 16.3 3.33 (12:50) 2.22 (13:00) 0 0 0 0 0
01-11-2020 19.9 (17:00) 14.8 (00:00) 17.3 4.17 (16:10) 3.06 (16:10) 0 0 0 0 0
31-10-2020 21.4 (16:50) 15.9 (00:00) 18.6 3.89 (05:10) 2.5 (05:10) 0 0 0 0 0
30-10-2020 20.8 (14:30) 15.2 (00:00) 18 4.72 (10:10) 3.06 (20:00) 0 0 0 0 0
29-10-2020 20.4 (17:30) 13.6 (00:00) 17 6.39 (13:10) 4.44 (13:20) 0 0 0 0 0
28-10-2020 19.8 (17:20) 14.8 (00:00) 17.3 3.89 (07:10) 1.94 (00:50) 0 0 0 0 0

Gráficas

Temp. máximas Temp. mínimas Temp. medias Precipitaciones Rachas de viento máximas Velocidades máximas media en intervalos de 10 minutos

Datos horarios

Fecha y hora oficial Temperatura (ºC) Velocidad del viento (km/h) Dirección del viento Racha (km/h) Dirección de racha Precipitación (mm) Presión (hPa) Tendencia (hPa) Humedad (%)
2020-11-26 23:00:00 -- -- -- -- -- -- -- -- --
2020-11-26 22:00:00 -- -- -- -- -- -- -- -- --
2020-11-26 21:00:00 -- -- -- -- -- -- -- -- --
2020-11-26 20:00:00 -- -- -- -- -- -- -- -- --
2020-11-26 19:00:00 -- -- -- -- -- -- -- -- --
2020-11-26 18:00:00 -- -- -- -- -- -- -- -- --
2020-11-26 17:00:00 -- -- -- -- -- -- -- -- --
2020-11-26 16:00:00 -- -- -- -- -- -- -- -- --
2020-11-26 15:00:00 -- -- -- -- -- -- -- -- --
2020-11-26 14:00:00 -- -- -- -- -- -- -- -- --
2020-11-26 13:00:00 -- -- -- -- -- -- -- -- --
2020-11-26 12:00:00 -- -- -- -- -- -- -- -- --
2020-11-26 11:00:00 -- -- -- -- -- -- -- -- --
2020-11-26 10:00:00 -- -- -- -- -- -- -- -- --
2020-11-26 09:00:00 -- -- -- -- -- -- -- -- --
2020-11-26 08:00:00 -- -- -- -- -- -- -- -- --
2020-11-26 07:00:00 -- -- -- -- -- -- -- -- --
2020-11-26 06:00:00 -- -- -- -- -- -- -- -- --
2020-11-26 05:00:00 -- -- -- -- -- -- -- -- --
2020-11-26 04:00:00 -- -- -- -- -- -- -- -- --
2020-11-26 03:00:00 -- -- -- -- -- -- -- -- --
2020-11-26 02:00:00 17 22 Sudeste 37 Sudeste 2.8 1009 -- 98
2020-11-26 01:00:00 17.3 24 Sudeste 37 Sudeste 0.8 1009.4 -- 96
2020-11-26 00:00:00 17 16 Sudeste 28 Sudeste 0 1010.3 -- 96
2020-11-25 23:00:00 17 19 Sudeste 73 Sudeste 0 1010.4 -- 97
2020-11-25 22:00:00 15.9 10 Este 18 Este 0.4 1010.8 -- 97
2020-11-25 21:00:00 15.2 9 Este 15 Este 0 1010.5 -- 97
2020-11-25 20:00:00 14.3 0 Calma 9 Norte 0 1011.3 -- 96
2020-11-25 19:00:00 14.1 4 Norte 32 Oeste 3.1 1011.7 -- 96
2020-11-25 18:00:00 17.5 10 Sur 32 Sudeste 0 1012.1 -- 94
2020-11-25 17:00:00 17.9 17 Sudeste 22 Sudeste 0.1 1011.3 -- 91
2020-11-25 16:00:00 18 13 Sudeste 19 Sudeste 0 1011.9 -- 90
2020-11-25 15:00:00 18.1 11 Sur 17 Sur 0 1012.5 -- 91
2020-11-25 14:00:00 18.3 14 Sur 21 Sur 0 1013.4 -- 93
2020-11-25 13:00:00 17.8 8 Sudeste 17 Sur 0 1014.4 -- 95
2020-11-25 12:00:00 17.5 10 Este 16 Este 0 1015.8 -- 94
2020-11-25 11:00:00 17 7 Nordeste 12 Nordeste 0 1016.3 -- 95
2020-11-25 10:00:00 16.6 4 Este 12 Este 0.2 1016.4 -- 95
2020-11-25 09:00:00 16.3 6 Este 13 Este 0 1016.5 -- 96
2020-11-25 08:00:00 15.7 4 Norte 10 Noroeste 0 1016.6 -- 94
2020-11-25 07:00:00 15.7 2 Oeste 7 Oeste 0 1016.9 -- 93
2020-11-25 06:00:00 16 6 Nordeste 14 Sudeste 0 1016.9 -- 93
2020-11-25 05:00:00 16 3 Este 8 Este 0 1017.2 -- 92
2020-11-25 04:00:00 16 0 Calma 5 Norte 0 1017.8 -- 92
2020-11-25 03:00:00 15.8 0 Calma 6 Noroeste 0 1018.2 -- 91
2020-11-25 02:00:00 15.8 4 Noroeste 9 Oeste 0 1018.7 -- 91
2020-11-25 01:00:00 15.2 6 Noroeste 19 Oeste 0 1019.4 -- 90
2020-11-25 00:00:00 14.7 4 Noroeste 9 Oeste 0 1019.6 -- 91
2020-11-24 23:00:00 14.5 5 Noroeste 11 Oeste 0 1019.9 -- 91
2020-11-24 22:00:00 14.7 5 Oeste 11 Oeste 0 1020.4 -- 89
2020-11-24 21:00:00 15.2 5 Oeste 8 Oeste 0 1020.2 -- 88
2020-11-24 20:00:00 16.2 4 Oeste 7 Oeste 0 1020.5 -- 86
2020-11-24 19:00:00 16.6 3 Noroeste 7 Oeste 0 1020.5 -- 85
2020-11-24 18:00:00 17.3 3 Sudoeste 7 Sur 0 1020.5 -- 82
2020-11-24 17:00:00 18.4 4 Sudeste 11 Sudeste 0 1020.5 -- 80
2020-11-24 16:00:00 18.2 7 Sudeste 11 Sudeste 0 1020.6 -- 79
2020-11-24 15:00:00 17.6 8 Sudeste 14 Sudeste 0 1021.3 -- 79
2020-11-24 14:00:00 17.4 10 Este 15 Sudeste 0 1022.2 -- 79
2020-11-24 13:00:00 17.4 9 Este 14 Sudeste 0 1023.1 -- 79
2020-11-24 12:00:00 17.4 10 Este 16 Sudeste 0 1024.2 -- 79
2020-11-24 11:00:00 16.9 11 Este 16 Este 0 1024.6 -- 81
2020-11-24 10:00:00 15.9 9 Este 15 Este 0 1024.4 -- 85
2020-11-24 09:00:00 14.2 3 Noroeste 8 Noroeste 0 1024.3 -- 86
2020-11-24 08:00:00 13.5 4 Noroeste 9 Noroeste 0 1024.3 -- 88
2020-11-24 07:00:00 12.9 6 Noroeste 10 Noroeste 0 1024 -- 88
2020-11-24 06:00:00 13.1 6 Noroeste 13 Norte 0 1023.6 -- 88
2020-11-24 05:00:00 13.3 4 Noroeste 9 Noroeste 0 1024 -- 86
2020-11-24 04:00:00 13.6 5 Noroeste 10 Noroeste 0 1024.6 -- 86
2020-11-24 03:00:00 13.7 4 Noroeste 10 Norte 0 1024.8 -- 84
2020-11-24 02:00:00 14 5 Noroeste 9 Noroeste 0 1025 -- 83
2020-11-24 01:00:00 14.2 5 Noroeste 9 Noroeste 0 1025.5 -- 83
2020-11-24 00:00:00 14.5 5 Noroeste 9 Norte 0 1025.7 -- 82
2020-11-23 23:00:00 14.8 5 Noroeste 15 Sudeste 0 1026 -- 82
2020-11-23 22:00:00 15.5 9 Este 15 Sudeste 0 1026 -- 81
2020-11-23 21:00:00 16.6 8 Sudeste 17 Sudeste 0 1026.2 -- 79
2020-11-23 20:00:00 16.5 9 Este 17 Este 0 1026 -- 78
2020-11-23 19:00:00 16.8 9 Este 17 Sudeste 0 1025.7 -- 78
2020-11-23 18:00:00 17 12 Este 19 Sudeste 0 1025.5 -- 78
2020-11-23 17:00:00 17.7 14 Sudeste 19 Sudeste 0 1025.4 -- 77
2020-11-23 16:00:00 17.9 13 Este 22 Este 0 1025.4 -- 77
2020-11-23 15:00:00 17.8 13 Este 23 Este 0 1025.9 -- 77
2020-11-23 14:00:00 17.6 15 Este 22 Este 0 1026.4 -- 77
2020-11-23 13:00:00 17.4 14 Este 22 Sudeste 0 1027.1 -- 77
2020-11-23 12:00:00 17 15 Este 25 Este 0 1027.8 -- 79
2020-11-23 11:00:00 16.8 16 Este 25 Este 0 1027.6 -- 80
2020-11-23 10:00:00 16.3 14 Este 24 Este 0 1027.3 -- 81
2020-11-23 09:00:00 16 12 Este 22 Nordeste 0 1026.8 -- 82
2020-11-23 08:00:00 16.1 13 Este 23 Este 0 1026.3 -- 80
2020-11-23 07:00:00 16 11 Nordeste 24 Nordeste 0 1026.1 -- 79
2020-11-23 06:00:00 16.2 12 Este 24 Este 0 1026 -- 79
2020-11-23 05:00:00 16.2 12 Este 22 Este 0 1025.7 -- 79
2020-11-23 04:00:00 15.8 10 Nordeste 18 Nordeste 0 1026 -- 82
2020-11-23 03:00:00 14.4 2 Noroeste 15 Nordeste 0 1026.1 -- 81
2020-11-23 02:00:00 16.1 11 Nordeste 19 Nordeste 0 1026.1 -- 82
2020-11-23 01:00:00 16.3 10 Este 19 Este 0 1026.4 -- 81
2020-11-23 00:00:00 16.3 10 Este 16 Nordeste 0 1026.3 -- 79
2020-11-22 23:00:00 16.5 9 Nordeste 26 Sudeste 0 1026.3 -- 80
2020-11-22 22:00:00 16.5 15 Este 25 Sudeste 0 1026 -- 80
2020-11-22 21:00:00 15.7 2 Sudoeste 14 Este 0 1026.2 -- 77
2020-11-22 20:00:00 16.6 8 Este 15 Este 0 1025.9 -- 77
2020-11-22 19:00:00 16.9 10 Este 17 Sudeste 0 1025.7 -- 76
2020-11-22 18:00:00 17.2 10 Este 15 Sudeste 0 1025.4 -- 72
2020-11-22 17:00:00 18.2 10 Sudeste 17 Sudeste 0 1025.3 -- 70
2020-11-22 16:00:00 18.1 12 Sudeste 19 Sudeste 0 1025.5 -- 72
2020-11-22 15:00:00 18.1 11 Este 21 Sudeste 0 1025.8 -- 73
2020-11-22 14:00:00 18 13 Este 21 Este 0 1026.4 -- 74
2020-11-22 13:00:00 17.8 14 Este 24 Este 0 1027 -- 75
2020-11-22 12:00:00 17.6 16 Este 25 Sudeste 0 1027.6 -- 77
2020-11-22 11:00:00 17.3 16 Este 25 Este 0 1027.7 -- 79
2020-11-22 10:00:00 17 18 Este 31 Sudeste 0 1027.5 -- 80
2020-11-22 09:00:00 17.2 20 Este 34 Sudeste 0 1027 -- 80
2020-11-22 08:00:00 16.9 20 Este 31 Este 0 1026.8 -- 82
2020-11-22 07:00:00 17.3 17 Este 28 Sudeste 0 1026.6 -- 81
2020-11-22 06:00:00 17.1 20 Sudeste 31 Sudeste 0 1026.4 -- 78
2020-11-22 05:00:00 17.3 22 Sudeste 30 Sudeste 0 1026.3 -- 79
2020-11-22 04:00:00 17.4 22 Sudeste 31 Sudeste 0 1026.4 -- 80
2020-11-22 03:00:00 17.4 23 Sudeste 36 Este 0 1026.7 -- 79
2020-11-22 02:00:00 17.5 26 Sudeste 35 Sudeste 0 1026.8 -- 80
2020-11-22 01:00:00 17.6 27 Sudeste 36 Sudeste 0 1026.9 -- 82
2020-11-22 00:00:00 17.6 26 Sudeste 39 Sudeste 0 1026.8 -- 83
2020-11-21 23:00:00 17.8 27 Sudeste 37 Sudeste 0 1026.9 -- 84
2020-11-21 22:00:00 17.7 22 Este 33 Sudeste 0 1026.5 -- 85
2020-11-21 21:00:00 17.8 21 Sudeste 30 Sudeste 0 1026.4 -- 87
2020-11-21 20:00:00 17.8 18 Este 28 Este 0 1025.9 -- 88
2020-11-21 19:00:00 17.9 18 Este 30 Sudeste 0 1025.5 -- 87
2020-11-21 18:00:00 18.1 22 Este 32 Sudeste 0 1025.1 -- 86
2020-11-21 17:00:00 19 22 Sudeste 31 Sudeste 0 1024.9 -- 86
2020-11-21 16:00:00 18.9 16 Este 27 Este 0 1024.8 -- 85
2020-11-21 15:00:00 18.6 15 Este 27 Sudeste 0 1024.8 -- 84
2020-11-21 14:00:00 18.5 21 Sudeste 33 Sudeste 0 1025.4 -- 85
2020-11-21 13:00:00 18.4 25 Sudeste 35 Sudeste 0 1025.9 -- 88
2020-11-21 12:00:00 18.4 18 Este 33 Este 0 1026.4 -- 87
2020-11-21 11:00:00 18.3 17 Este 32 Sudeste 0 1026.2 -- 88
2020-11-21 10:00:00 18.3 22 Sudeste 30 Sudeste 0 1025.7 -- 90
2020-11-21 09:00:00 18.1 18 Este 31 Sudeste 0 1025.3 -- 91
2020-11-21 08:00:00 18 22 Este 32 Sudeste 0 1024.5 -- 94
2020-11-21 07:00:00 17.8 10 Este 18 Este 0 1024.1 -- 94
2020-11-21 06:00:00 17.7 10 Este 19 Este 0 1023.9 -- 94
2020-11-21 05:00:00 16.6 5 Nordeste 15 Este 0 1023.9 -- 93
2020-11-21 04:00:00 15.7 3 Noroeste 9 Oeste 0 1024.4 -- 92
2020-11-21 03:00:00 15.5 4 Noroeste 9 Noroeste 0 1024.3 -- 91
2020-11-21 02:00:00 15.8 4 Noroeste 8 Norte 0 1024.4 -- 90
2020-11-21 01:00:00 16.4 3 Norte 12 Nordeste 0 1024.6 -- 92
2020-11-21 00:00:00 17.6 6 Nordeste 15 Nordeste 0 1024.9 -- 93
2020-11-20 23:00:00 17.7 8 Este 13 Este 0 1024.8 -- 93
2020-11-20 22:00:00 17.7 7 Nordeste 12 Este 0 1024.5 -- 93
2020-11-20 21:00:00 17.6 7 Este 13 Este 0 1024.3 -- 93
2020-11-20 20:00:00 17.9 9 Este 13 Este 0 1024.3 -- 93
2020-11-20 19:00:00 18.2 9 Este 12 Este 0 1024.2 -- 91
2020-11-20 18:00:00 19.1 8 Sudeste 12 Sudeste 0 1023.9 -- 86
2020-11-20 17:00:00 20.1 9 Sudeste 13 Sudeste 0 1023.6 -- 84
2020-11-20 16:00:00 20.2 10 Sudeste 14 Sudeste 0 1023.7 -- 82
2020-11-20 15:00:00 20.2 10 Sudeste 16 Sudeste 0 1023.7 -- 82
2020-11-20 14:00:00 20 10 Sudeste 15 Sudeste 0 1024.3 -- 82
2020-11-20 13:00:00 19.6 11 Sudeste 14 Sudeste 0 1025.1 -- 82
2020-11-20 12:00:00 19.2 8 Este 12 Este 0 1026 -- 84
2020-11-20 11:00:00 18.3 3 Este 5 Este 0 1026.1 -- 85
2020-11-20 10:00:00 17.3 2 Oeste 10 Noroeste 0 1026.4 -- 87
2020-11-20 09:00:00 16.3 5 Noroeste 9 Noroeste 0 1026.2 -- 88
2020-11-20 08:00:00 16 6 Noroeste 12 Noroeste 0 1026.3 -- 88
2020-11-20 07:00:00 15.9 5 Noroeste 9 Oeste 0 1026.3 -- 88
2020-11-20 06:00:00 16 5 Noroeste 11 Norte 0 1026.1 -- 88
2020-11-20 05:00:00 15.8 6 Norte 10 Norte 0 1026.6 -- 87
2020-11-20 04:00:00 16 4 Noroeste 9 Noroeste 0 1026.8 -- 86
2020-11-20 03:00:00 16.3 4 Noroeste 7 Noroeste 0 1027.2 -- 85
2020-11-20 02:00:00 17.5 4 Nordeste 12 Nordeste 0 1027.6 -- 84
2020-11-20 01:00:00 18.1 6 Nordeste 12 Nordeste 0 1028.3 -- 85
2020-11-20 00:00:00 18.3 8 Este 15 Este 0 1028.4 -- 85
2020-11-19 23:00:00 18.5 10 Este 16 Este 0 1028.5 -- 86
2020-11-19 22:00:00 18.5 9 Nordeste 15 Este 0 1028.4 -- 87
2020-11-19 21:00:00 18.4 7 Este 13 Este 0 1028.4 -- 89
2020-11-19 20:00:00 18.6 9 Este 14 Este 0 1028.3 -- 88
2020-11-19 19:00:00 18.6 9 Este 17 Este 0 1028.1 -- 88
2020-11-19 18:00:00 18.9 12 Este 19 Este 0 1027.8 -- 85
2020-11-19 17:00:00 19.7 14 Este 24 Este 0 1027.6 -- 82
2020-11-19 16:00:00 19.5 13 Este 18 Este 0 1027.3 -- 86
2020-11-19 15:00:00 19.7 11 Este 20 Este 0 1027.6 -- 88
2020-11-19 14:00:00 19.6 12 Este 20 Este 0 1027.8 -- 87
2020-11-19 13:00:00 19.4 14 Este 22 Este 0 1028.3 -- 85
2020-11-19 12:00:00 19.2 16 Este 23 Este 0 1028.6 -- 84
2020-11-19 11:00:00 18.9 17 Este 24 Este 0 1028.4 -- 86
2020-11-19 10:00:00 18.3 12 Nordeste 21 Este 0 1028.1 -- 90
2020-11-19 09:00:00 17.7 10 Nordeste 19 Este 0 1027.4 -- 93
2020-11-19 08:00:00 16.2 5 Nordeste 14 Este 0 1026.8 -- 94
2020-11-19 07:00:00 15.5 2 Noroeste 6 Noroeste 0 1026.3 -- 94
2020-11-19 06:00:00 15.4 2 Noroeste 5 Noroeste 0 1025.9 -- 94
2020-11-19 05:00:00 15.7 3 Noroeste 5 Noroeste 0 1025.4 -- 94
2020-11-19 04:00:00 15.8 4 Noroeste 7 Noroeste 0 1025.6 -- 94
2020-11-19 03:00:00 15.9 3 Noroeste 9 Noroeste 0 1025.6 -- 93
2020-11-19 02:00:00 15.9 5 Noroeste 11 Oeste 0 1025.9 -- 93
2020-11-19 01:00:00 16 4 Noroeste 11 Oeste 0 1026.2 -- 93
2020-11-19 00:00:00 16.3 5 Noroeste 8 Noroeste 0 1026.3 -- 93
2020-11-18 23:00:00 16.8 4 Noroeste 8 Noroeste 0 1026.4 -- 93
2020-11-18 22:00:00 17.2 5 Noroeste 9 Oeste 0 1026 -- 93
2020-11-18 21:00:00 17.9 4 Nordeste 9 Este 0 1025.8 -- 94
2020-11-18 20:00:00 18 3 Nordeste 9 Este 0 1025.5 -- 96
2020-11-18 19:00:00 18.4 5 Este 10 Este 0 1025.5 -- 96
2020-11-18 18:00:00 19 6 Este 10 Este 0 1025.4 -- 95
2020-11-18 17:00:00 19.9 6 Este 9 Este 0 1025.2 -- 93
2020-11-18 16:00:00 20 7 Sudeste 12 Sudeste 0 1025.3 -- 93
2020-11-18 15:00:00 19.9 8 Este 14 Sudeste 0 1025.7 -- 93
2020-11-18 14:00:00 19.6 9 Este 18 Sudeste 0 1026.3 -- 91
2020-11-18 13:00:00 19.7 13 Sudeste 19 Sudeste 0 1026.8 -- 90
2020-11-18 12:00:00 19.7 9 Este 14 Este 0 1027.3 -- 90
2020-11-18 11:00:00 19.4 3 Nordeste 8 Nordeste 0 1027.3 -- 84
2020-11-18 10:00:00 18.9 5 Este 16 Nordeste 0 1027 -- 93
2020-11-18 09:00:00 18.7 6 Este 12 Este 0 1026.8 -- 93
2020-11-18 08:00:00 18.7 0 Calma 7 Norte 0 1026.4 -- 89
2020-11-18 07:00:00 18.2 5 Norte 9 Nordeste 0 1026 -- 91
2020-11-18 06:00:00 18.2 0 Calma 10 Sudeste 0 1025.9 -- 94
2020-11-18 05:00:00 18.1 3 Norte 5 Nordeste 0 1025.6 -- 94
2020-11-18 04:00:00 18.1 0 Calma 6 Oeste 0 1025.8 -- 95
2020-11-18 03:00:00 18.1 3 Oeste 6 Oeste 0 1025.7 -- 95
2020-11-18 02:00:00 18 0 Calma 7 Oeste 0 1025.6 -- 95
2020-11-18 01:00:00 18.2 2 Noroeste 6 Oeste 0 1026.1 -- 95
2020-11-18 00:00:00 18.1 0 Calma 4 Noroeste 0 1026.2 -- 95
2020-11-17 23:00:00 17.7 4 Noroeste 6 Noroeste 0 1026.3 -- 95
2020-11-17 22:00:00 18.2 0 Calma 2 Oeste 0 1026.1 -- 96
2020-11-17 21:00:00 18.5 0 Calma 4 Nordeste 0 1026 0.7 96
2020-11-17 20:00:00 18.7 3 Nordeste 6 Nordeste 0 1025.7 -- 96
2020-11-17 19:00:00 19.1 4 Este 8 Este 0 1025.5 -- 94
2020-11-17 18:00:00 19.7 5 Este 8 Este 0 1025.3 -- 90
2020-11-17 17:00:00 20.3 4 Sur 9 Sudeste 0 1025.2 -- 90
2020-11-17 16:00:00 20.6 6 Sudeste 13 Sudeste 0 1025 -- 89
2020-11-17 15:00:00 20.9 9 Sudeste 12 Sudeste 0 1025.2 -- 88
2020-11-17 14:00:00 20.9 5 Sudeste 9 Sudeste 0 1025.5 -- 89
2020-11-17 13:00:00 20.7 6 Sudeste 9 Sudeste 0 1026.3 -- 89
2020-11-17 12:00:00 20.2 4 Sudeste 6 Sudeste 0 1026.4 -- 89
2020-11-17 11:00:00 19.7 2 Sur 7 Noroeste 0 1026.2 -- 88
2020-11-17 10:00:00 18.4 4 Oeste 9 Oeste 0 1026 -- 85
2020-11-17 09:00:00 17.5 6 Noroeste 12 Oeste 0 1025.2 -- 85
2020-11-17 08:00:00 16.7 8 Oeste 15 Oeste 0 1024.6 -- 84
2020-11-17 07:00:00 17.1 4 Noroeste 8 Noroeste 0 1023.9 -- 82
2020-11-17 06:00:00 17.5 5 Noroeste 10 Norte 0 1023.6 -- 79
2020-11-17 05:00:00 18.1 4 Noroeste 9 Noroeste 0 1023.2 -- 76
2020-11-17 04:00:00 18.6 4 Noroeste 10 Oeste 0 1023.1 -- 74
2020-11-17 03:00:00 19.4 7 Noroeste 11 Oeste 0 1022.9 -- 73
2020-11-17 02:00:00 18.9 3 Noroeste 12 Sudeste 0 1022.9 -- 74
2020-11-17 01:00:00 19.4 4 Noroeste 13 Oeste 0 1022.7 -- 74
2020-11-17 00:00:00 20.1 7 Oeste 14 Oeste 0 1022.5 -- 74
2020-11-16 23:00:00 20.7 8 Oeste 15 Oeste 0 1022.5 -- 76
2020-11-16 22:00:00 20.9 5 Noroeste 10 Noroeste 0 1022.4 -- 76
2020-11-16 21:00:00 20.9 3 Noroeste 8 Noroeste 0 1022.1 -- 71
2020-11-16 20:00:00 21.2 0 Calma 12 Noroeste 0 1021.4 -- 73
2020-11-16 19:00:00 21.5 2 Noroeste 16 Nordeste 0 1021.1 -- 74
2020-11-16 18:00:00 21.5 5 Nordeste 9 Nordeste 0 1020.5 -- 76
2020-11-16 17:00:00 22.2 5 Nordeste 10 Nordeste 0 1020.2 -- 77
2020-11-16 16:00:00 21.5 7 Nordeste 12 Nordeste 0 1020 -- 82
2020-11-16 15:00:00 20.9 7 Nordeste 10 Nordeste 0 1020.1 -- 88
2020-11-16 14:00:00 20.1 6 Nordeste 13 Nordeste 0 1020.5 -- 93
2020-11-16 13:00:00 19.6 6 Este 14 Sudoeste 0 1021.3 -- 96
2020-11-16 12:00:00 19.5 5 Sur 11 Sur 0 1021.8 -- 96
2020-11-16 11:00:00 18.1 4 Sur 6 Norte 0 1021.8 -- 94
2020-11-16 10:00:00 17.1 4 Nordeste 8 Oeste 0 1021.8 -- 93
2020-11-16 09:00:00 16.1 3 Noroeste 6 Oeste 0 1021.3 -- 96
2020-11-16 08:00:00 16 0 Calma 10 Oeste 0 1020.9 -- 96
2020-11-16 07:00:00 15.7 6 Oeste 13 Oeste 0 1020.6 -- 97
2020-11-16 06:00:00 15.8 5 Oeste 12 Oeste 0 1020.7 -- 98
2020-11-16 05:00:00 15.7 7 Oeste 14 Noroeste 0 1020.9 -- 98
2020-11-16 04:00:00 16 3 Noroeste 8 Noroeste 0 1021 -- 97
2020-11-16 03:00:00 16.5 3 Noroeste 9 Oeste 0 1021.5 -- 97
2020-11-16 02:00:00 16.5 4 Noroeste 10 Noroeste 0 1021.9 -- 97
2020-11-16 01:00:00 16.7 4 Noroeste 7 Noroeste 0 1022.3 -- 97
2020-11-16 00:00:00 17.1 3 Noroeste 6 Noroeste 0 1022.5 -- 97
2020-11-15 23:00:00 17.4 0 Calma 8 Noroeste 0 1022.7 -- 98
2020-11-15 22:00:00 17.6 0 Calma 4 Noroeste 0 1022.6 -- 98
2020-11-15 21:00:00 18.6 0 Calma 8 Nordeste 0 1022.3 -- 99
2020-11-15 20:00:00 18.9 4 Norte 9 Sur 0 1021.9 -- 98
2020-11-15 19:00:00 19.3 3 Sur 9 Sudoeste 0 1021.5 -- 97
2020-11-15 18:00:00 19.6 5 Sudoeste 9 Sudoeste 0 1021.1 -- 96
2020-11-15 17:00:00 20.9 6 Sur 9 Sur 0 1021 -- 92
2020-11-15 16:00:00 20.6 4 Sur 9 Sudeste 0 1021.1 -- 93
2020-11-15 15:00:00 20.4 5 Sudeste 13 Sur 0 1021 -- 94
2020-11-15 14:00:00 20.2 6 Sur 9 Sur 0 1021.1 -- 95
2020-11-15 13:00:00 19.7 3 Sudeste 11 Sur 0 1021.8 -- 97
2020-11-15 12:00:00 18.9 8 Sur 12 Sur 0 1022.2 -- 97
2020-11-15 11:00:00 18.5 3 Sudeste 6 Nordeste 0 1022.4 -- 97
2020-11-15 10:00:00 17.5 2 Nordeste 5 Noroeste 0 1022.1 -- 97
2020-11-15 09:00:00 16.4 4 Noroeste 12 Noroeste 0 1021.7 -- 97
2020-11-15 08:00:00 16.2 9 Noroeste 15 Oeste 0 1021 -- 97
2020-11-15 07:00:00 15.9 5 Noroeste 14 Oeste 0 1020.7 -- 98
2020-11-15 06:00:00 15.7 9 Oeste 15 Oeste 0 1020.5 -- 98
2020-11-15 05:00:00 15.8 4 Noroeste 10 Oeste 0 1020.3 -- 98
2020-11-15 04:00:00 15.9 5 Noroeste 9 Oeste 0 1020.9 -- 99
2020-11-15 03:00:00 15.9 6 Oeste 14 Oeste 0 1021.1 -- 98
2020-11-15 02:00:00 16.3 2 Noroeste 11 Oeste 0 1021.2 -- 99
2020-11-15 01:00:00 16.4 6 Oeste 13 Oeste 0 1021.5 -- 99
2020-11-15 00:00:00 16.6 7 Noroeste 12 Noroeste 0 1021.6 -- 99
2020-11-14 23:00:00 17.1 0 Calma 7 Nordeste 0 1022 -- 99
2020-11-14 22:00:00 17.3 2 Noroeste 9 Oeste 0 1021.7 -- 99
2020-11-14 21:00:00 17.9 0 Calma 4 Nordeste 0 1021.4 -- 99
2020-11-14 20:00:00 18.1 2 Nordeste 5 Nordeste 0 1021.3 -- 99
2020-11-14 19:00:00 18.4 0 Calma 4 Sudeste 0 1020.9 -- 99
2020-11-14 18:00:00 18.5 0 Calma 3 Sudeste 0 1020.6 -- 99
2020-11-14 17:00:00 18.5 0 Calma 9 Este 0.6 1020.3 -- 98
2020-11-14 16:00:00 18.6 5 Este 8 Este 0.1 1020 -- 98
2020-11-14 15:00:00 18.7 3 Nordeste 7 Este 0 1020.2 -- 98
2020-11-14 14:00:00 18.9 2 Nordeste 7 Este 0.6 1020.6 -- 97
2020-11-14 13:00:00 19 5 Este 8 Este 0 1021.2 -- 96
2020-11-14 12:00:00 19.1 6 Este 10 Nordeste 0.1 1021.5 -- 96
2020-11-14 11:00:00 18.7 6 Este 9 Este 0 1021.6 -- 96
2020-11-14 10:00:00 18.3 0 Calma 8 Nordeste 0 1021.4 -- 96
2020-11-14 09:00:00 18 4 Noroeste 6 Oeste 0 1020.6 -- 96
2020-11-14 08:00:00 17.8 0 Calma 5 Noroeste 0 1019.9 -- 96
2020-11-14 07:00:00 17.8 2 Oeste 5 Noroeste 0 1019.7 -- 96
2020-11-14 06:00:00 17.8 0 Calma 5 Nordeste 0 1019.4 -- 96
2020-11-14 05:00:00 17.8 2 Oeste 8 Oeste 0 1019.3 -- 96
2020-11-14 04:00:00 18 4 Noroeste 7 Oeste 0 1019.4 -- 96
2020-11-14 03:00:00 18.2 0 Calma 4 Norte 0 1019.7 -- 96
2020-11-14 02:00:00 18.2 2 Norte 6 Noroeste 0 1019.9 -- 96
2020-11-14 01:00:00 18.4 0 Calma 8 Este 0 1020.6 -- 96
2020-11-14 00:00:00 18.7 4 Este 7 Este 0 1020.6 -- 96
2020-11-13 23:00:00 18.5 0 Calma 5 Nordeste 0 1020.5 -- 94
2020-11-13 22:00:00 18.7 0 Calma 7 Oeste 0 1020.6 -- 94
2020-11-13 21:00:00 18.7 0 Calma 5 Oeste 0 1020.2 -- 94
2020-11-13 20:00:00 18.9 3 Sur 8 Sudeste 0 1019.9 -- 94
2020-11-13 19:00:00 19 4 Sudoeste 7 Sur 0 1019.4 -- 93
2020-11-13 18:00:00 19.2 0 Calma 4 Sur 0 1018.9 -- 90
2020-11-13 17:00:00 19.7 2 Sudeste 6 Sur 0 1019 -- 88
2020-11-13 16:00:00 19.7 3 Este 8 Sudeste 0 1018.9 -- 88
2020-11-13 15:00:00 20.1 6 Sudeste 9 Sudeste 0 1019.2 -- 86
2020-11-13 14:00:00 20.1 8 Sudeste 14 Sudeste 0 1019.8 -- 86
2020-11-13 13:00:00 19.8 11 Sudeste 14 Sudeste 0 1020.3 -- 88
2020-11-13 12:00:00 25.6 6 Este 12 Este 0 1020.7 -- 94
2020-11-13 11:00:00 19 7 Este 10 Este 0 1020.6 -- 92
2020-11-13 10:00:00 18.6 5 Este 8 Este 0 1020.4 -- 94
2020-11-13 09:00:00 18.3 5 Nordeste 10 Este 0 1019.9 -- 95
2020-11-13 08:00:00 18.2 8 Este 12 Este 0 1019.1 -- 96
2020-11-13 07:00:00 18.2 9 Este 17 Este 0 1018.8 -- 96
2020-11-13 06:00:00 18.2 9 Nordeste 17 Nordeste 0 1018.6 -- 96
2020-11-13 05:00:00 18.2 6 Nordeste 14 Este 0 1018.6 -- 96
2020-11-13 04:00:00 18.1 8 Nordeste 14 Este 0 1018.7 -- 96
2020-11-13 03:00:00 18.2 9 Este 15 Este 0 1019 -- 95
2020-11-13 02:00:00 18.2 9 Este 18 Este 0 1019.2 -- 95
2020-11-13 01:00:00 18.3 10 Nordeste 18 Nordeste 0 1019.5 -- 95
2020-11-13 00:00:00 18.3 8 Nordeste 16 Este 0 1019.6 -- 96
2020-11-12 23:00:00 18.6 9 Este 15 Este 0 1019.7 -- 94
2020-11-12 22:00:00 18.6 8 Este 13 Este 0 1019.4 -- 92
2020-11-12 21:00:00 18.4 6 Este 14 Este 0 1019.2 -- 89
2020-11-12 20:00:00 18.5 9 Este 13 Nordeste 0 1019 -- 88
2020-11-12 19:00:00 18.5 6 Nordeste 12 Nordeste 0 1019 -- 88
2020-11-12 18:00:00 18.6 7 Este 12 Este 0 1018.6 -- 87
2020-11-12 17:00:00 19 8 Este 15 Este 0 1018.9 -- 85
2020-11-12 16:00:00 19.5 5 Este 14 Este 0 1018.8 -- 82
2020-11-12 15:00:00 19.6 6 Este 17 Este 0 1018.6 -- 82
2020-11-12 14:00:00 19.1 14 Este 21 Este 0 1019.2 -- 84
2020-11-12 13:00:00 18.9 14 Este 21 Este 0 1019.8 -- 84
2020-11-12 12:00:00 19 14 Este 24 Este 0 1020.9 -- 85
2020-11-12 11:00:00 18.4 17 Este 26 Este 0 1021 -- 85
2020-11-12 10:00:00 18.3 17 Este 24 Este 0 1020.8 -- 87
2020-11-12 09:00:00 17.9 17 Este 25 Este 0 1020.6 -- 89
2020-11-12 08:00:00 17.8 11 Nordeste 22 Este 0 1020.4 -- 90
2020-11-12 07:00:00 17.6 14 Este 23 Este 0 1020.2 -- 91
2020-11-12 06:00:00 17.6 13 Este 20 Este 0 1020.1 -- 93
2020-11-12 05:00:00 17.6 9 Este 17 Este 0 1020.5 -- 93
2020-11-12 04:00:00 17.6 9 Este 23 Sudeste 0 1020.7 -- 93
2020-11-12 03:00:00 17.3 3 Nordeste 9 Este 0 1021.5 -- 93
2020-11-12 02:00:00 17.7 4 Nordeste 12 Este 0 1021.7 -- 93
2020-11-12 01:00:00 17.9 7 Nordeste 14 Nordeste 0 1022.1 -- 93
2020-11-12 00:00:00 18 8 Este 16 Este 0 1022.4 -- 95
2020-11-11 23:00:00 18.1 7 Este 17 Este 0 1022.8 -- 95
2020-11-11 22:00:00 18 8 Nordeste 15 Nordeste 0 1022.4 -- 95
2020-11-11 21:00:00 18.2 11 Este 17 Este 0 1022.2 -- 96
2020-11-11 20:00:00 18.4 13 Este 19 Este 0 1021.9 -- 94
2020-11-11 19:00:00 18.3 12 Este 19 Este 0 1021.7 -- 93
2020-11-11 18:00:00 18.5 12 Este 17 Este 0 1021.5 -- 92
2020-11-11 17:00:00 19.1 9 Este 22 Este 0 1021.5 -- 90
2020-11-11 16:00:00 19.4 18 Sudeste 25 Sudeste 0 1021 -- 88
2020-11-11 15:00:00 19.5 17 Sudeste 24 Sudeste 0 1021.3 -- 88
2020-11-11 14:00:00 19.1 14 Este 22 Sudeste 0 1022 -- 89
2020-11-11 13:00:00 18.9 13 Este 28 Este 0 1022.6 -- 89
2020-11-11 12:00:00 18.6 10 Nordeste 21 Este 0 1023.6 -- 89
2020-11-11 11:00:00 18.4 14 Este 22 Este 0 1023.8 -- 90
2020-11-11 10:00:00 18.3 14 Este 20 Este 0 1023.8 -- 90
2020-11-11 09:00:00 18.2 13 Este 23 Este 0 1023.6 -- 91
2020-11-11 08:00:00 17.9 13 Este 23 Este 0 1023.4 -- 93
2020-11-11 07:00:00 17.7 14 Este 27 Este 0 1023.2 -- 94
2020-11-11 06:00:00 17.7 13 Este 22 Este 0 1023.3 -- 95
2020-11-11 05:00:00 17.5 12 Nordeste 23 Este 0 1023.5 -- 96
2020-11-11 04:00:00 17.7 12 Este 20 Este 0 1023.9 -- 96
2020-11-11 03:00:00 17.7 12 Este 22 Este 0 1024.3 -- 96
2020-11-11 02:00:00 17.9 15 Este 22 Este 0 1024.5 -- 95
2020-11-11 01:00:00 18 14 Este 32 Sudeste 0 1024.7 -- 94
2020-11-11 00:00:00 18.2 15 Este 22 Este 0 1024.7 -- 91
2020-11-10 23:00:00 18.3 11 Este 23 Nordeste 0 1024.7 -- 86
2020-11-10 22:00:00 18.4 13 Este 24 Este 0 1024.5 -- 82
2020-11-10 21:00:00 18.5 13 Este 21 Nordeste 0 1023.8 -- 81
2020-11-10 20:00:00 18.3 12 Este 20 Este 0 1023.3 -- 86
2020-11-10 19:00:00 18.4 13 Este 18 Este 0 1023.2 -- 93
2020-11-10 18:00:00 18.8 13 Este 19 Este 0 1023 -- 91
2020-11-10 17:00:00 19.7 12 Este 18 Este 0 1022.6 -- 88
2020-11-10 16:00:00 20 9 Este 16 Este 0 1022.6 -- 86
2020-11-10 15:00:00 19.9 10 Este 17 Este 0 1022.3 -- 87
2020-11-10 14:00:00 19.4 12 Este 21 Sudeste 0 1022.9 -- 88
2020-11-10 13:00:00 19.5 17 Sudeste 24 Sudeste 0 1023.5 -- 84
2020-11-10 12:00:00 19.3 5 Sudeste 14 Este 0 1023.7 -- 83
2020-11-10 11:00:00 19 8 Sudeste 11 Sudeste 0 1024.1 -- 81
2020-11-10 10:00:00 18 2 Nordeste 6 Noroeste 0 1023.9 -- 78
2020-11-10 09:00:00 16.9 4 Noroeste 9 Noroeste 0 1023.2 -- 77
2020-11-10 08:00:00 16.7 7 Noroeste 10 Noroeste 0 1022.4 -- 76
2020-11-10 07:00:00 16.8 5 Noroeste 8 Noroeste 0 1022 -- 76
2020-11-10 06:00:00 17 5 Noroeste 9 Noroeste 0 1021.6 -- 74
2020-11-10 05:00:00 16.9 4 Noroeste 10 Oeste 0 1021.4 -- 75
2020-11-10 04:00:00 16.8 3 Noroeste 12 Oeste 0 1021.3 -- 77
2020-11-10 03:00:00 17.2 2 Noroeste 19 Nordeste 0 1021.5 -- 75
2020-11-10 02:00:00 18.1 9 Norte 18 Norte 0 1021.4 -- 68
2020-11-10 01:00:00 17.5 4 Nordeste 8 Oeste 0 1021.7 -- 74
2020-11-10 00:00:00 18.1 4 Noroeste 8 Noroeste 0 1022.1 -- 79
2020-11-09 23:00:00 18.2 3 Noroeste 13 Oeste 0 1022.1 -- 80
2020-11-09 22:00:00 18.1 3 Oeste 9 Oeste 0 1021.9 -- 86
2020-11-09 21:00:00 18.7 5 Oeste 11 Oeste 0 1021.8 -- 85
2020-11-09 20:00:00 19 4 Noroeste 9 Sur 0 1021.9 -- 85
2020-11-09 19:00:00 19.3 0 Calma 10 Noroeste 0 1021.4 -- 86
2020-11-09 18:00:00 19.4 6 Oeste 13 Oeste 0 1021 -- 85
2020-11-09 17:00:00 19.6 2 Sudoeste 9 Oeste 0 1020.8 -- 86
2020-11-09 16:00:00 19.4 3 Oeste 13 Sudoeste 0 1020.7 -- 89
2020-11-09 15:00:00 18.8 4 Sudoeste 21 Sudoeste 0 1020.8 -- 90
2020-11-09 14:00:00 18.8 4 Sudoeste 20 Sudoeste 0 1020.9 -- 89
2020-11-09 13:00:00 18.9 4 Oeste 17 Sur 0 1021.7 -- 89
2020-11-09 12:00:00 18.4 7 Sudoeste 19 Sudoeste 0 1022.3 -- 91
2020-11-09 11:00:00 18.1 10 Sudoeste 16 Sur 0 1022.6 -- 92
2020-11-09 10:00:00 17 0 Calma 7 Oeste 0 1022.5 -- 90
2020-11-09 09:00:00 15 5 Oeste 13 Noroeste 0 1021.8 -- 89
2020-11-09 08:00:00 14.6 7 Noroeste 13 Noroeste 0 1021.3 -- 89
2020-11-09 07:00:00 14.5 5 Noroeste 13 Noroeste 0 1020.7 -- 89
2020-11-09 06:00:00 14.7 4 Noroeste 9 Oeste 0 1020.6 -- 89
2020-11-09 05:00:00 15 6 Noroeste 9 Noroeste 0 1020.5 -- 89
2020-11-09 04:00:00 15.4 4 Noroeste 7 Noroeste 0 1020.6 -- 88
2020-11-09 03:00:00 15.3 6 Noroeste 14 Oeste 0 1020.8 -- 88
2020-11-09 02:00:00 15.4 9 Oeste 14 Oeste 0 1020.7 -- 90
2020-11-09 01:00:00 15.7 5 Noroeste 8 Noroeste 0 1021.1 -- 91
2020-11-09 00:00:00 15.9 3 Noroeste 14 Oeste 0 1021.4 -- 91
2020-11-08 23:00:00 16.4 8 Oeste 13 Oeste 0 1021.4 -- 91
2020-11-08 22:00:00 16.9 5 Oeste 9 Oeste 0 1021.3 -- 90
2020-11-08 21:00:00 17.5 6 Oeste 9 Oeste 0 1021.2 -- 90
2020-11-08 20:00:00 18 0 Calma 3 Oeste 0 1020.9 -- 90
2020-11-08 19:00:00 18.1 2 Este 7 Sudeste 0 1020.7 -- 90
2020-11-08 18:00:00 19.1 5 Sudeste 8 Sudeste 0 1020.6 -- 86
2020-11-08 17:00:00 19.7 4 Sudeste 6 Sudeste 0 1020.5 -- 82
2020-11-08 16:00:00 20 4 Sudeste 6 Sudeste 0 1020.6 -- 82
2020-11-08 15:00:00 20 5 Sudeste 9 Sur 0 1020.8 -- 82
2020-11-08 14:00:00 19.7 6 Sur 9 Sur 0 1021 -- 85
2020-11-08 13:00:00 18.9 5 Sur 8 Sur 0 1021.6 -- 87
2020-11-08 12:00:00 18.4 5 Sudoeste 8 Sur 0 1022.3 -- 88
2020-11-08 11:00:00 18.3 3 Sur 6 Sur 0 1022.5 -- 89
2020-11-08 10:00:00 16.9 3 Oeste 9 Noroeste 0 1022.4 -- 87
2020-11-08 09:00:00 15.4 6 Noroeste 13 Noroeste 0 1022.3 -- 90
2020-11-08 08:00:00 14.9 8 Noroeste 13 Oeste 0 1021.8 -- 90
2020-11-08 07:00:00 14.9 7 Oeste 13 Oeste 0 1021.7 -- 90
2020-11-08 06:00:00 14.9 6 Noroeste 9 Noroeste 0 1021.6 -- 90
2020-11-08 05:00:00 15.2 6 Noroeste 21 Noroeste 0 1021.5 -- 88
2020-11-08 04:00:00 15.4 4 Noroeste 8 Oeste 0 1021.6 -- 86
2020-11-08 03:00:00 15.5 4 Noroeste 14 Oeste 0 1022 -- 85
2020-11-08 02:00:00 15.4 8 Noroeste 15 Oeste 0 1022 -- 84
2020-11-08 01:00:00 16.2 6 Noroeste 13 Oeste 0 1022.3 -- 83
2020-11-08 00:00:00 16.7 4 Noroeste 10 Oeste 0 1022.6 -- 81
2020-11-07 23:00:00 17.3 3 Noroeste 10 Oeste 0 1022.5 -- 80
2020-11-07 22:00:00 17.8 3 Norte 8 Norte 0 1022.3 -- 79
2020-11-07 21:00:00 18.7 4 Noroeste 10 Oeste 0 1021.8 -- 77
2020-11-07 20:00:00 19.6 4 Noroeste 9 Norte 0 1021.5 -- 73
2020-11-07 19:00:00 20.1 3 Noroeste 13 Oeste 0 1021.5 -- 73
2020-11-07 18:00:00 20.8 4 Oeste 15 Oeste 0 1021 -- 72
2020-11-07 17:00:00 20.8 4 Sudoeste 17 Sudoeste 0 1020.8 -- 77
2020-11-07 16:00:00 20.3 5 Sudoeste 17 Oeste 0 1020.7 -- 80
2020-11-07 15:00:00 20.3 4 Sudoeste 23 Oeste 0 1020.8 -- 82
2020-11-07 14:00:00 19.5 9 Sudoeste 22 Sudoeste 0 1020.7 -- 86
2020-11-07 13:00:00 19.4 4 Sudoeste 20 Sur 0 1021 -- 83
2020-11-07 12:00:00 19.4 6 Sudoeste 30 Sur 0 1021 -- 83
2020-11-07 11:00:00 19.3 5 Sudoeste 21 Oeste 0 1020.5 -- 82
2020-11-07 10:00:00 18.6 8 Oeste 21 Oeste 0 1019.8 -- 89
2020-11-07 09:00:00 18.2 8 Oeste 19 Oeste 0 1018.5 -- 94
2020-11-07 08:00:00 18.2 4 Oeste 15 Oeste 0 1017.1 -- 93
2020-11-07 07:00:00 17.8 4 Oeste 25 Sudoeste 0.1 1016.4 -- 94
2020-11-07 06:00:00 17.4 6 Sudeste 22 Sudeste 0 1015.7 -- 96
2020-11-07 05:00:00 17.5 15 Este 28 Este 0 1014.6 -- 96
2020-11-07 04:00:00 17.7 13 Este 25 Este 0 1015.2 -- 96
2020-11-07 03:00:00 17.6 15 Nordeste 23 Nordeste 0.1 1014.8 -- 96
2020-11-07 02:00:00 17.3 9 Este 15 Este 0 1014.6 -- 96
2020-11-07 01:00:00 17.5 0 Calma 6 Norte 0.1 1014.6 -- 94
2020-11-07 00:00:00 17.4 5 Noroeste 15 Noroeste 1.8 1014.5 -- 91
2020-11-06 23:00:00 19.4 5 Noroeste 23 Oeste 2.4 1015.7 -- 75
2020-11-06 22:00:00 20.6 3 Oeste 12 Norte 0.3 1013.6 -- 69
2020-11-06 21:00:00 21.3 4 Noroeste 13 Oeste 0.1 1013.1 -- 68
2020-11-06 20:00:00 21.4 7 Noroeste 17 Oeste 0 1012.4 -- 69
2020-11-06 19:00:00 21.9 6 Noroeste 11 Noroeste 0 1010.5 -- 67
2020-11-06 18:00:00 22 4 Noroeste 8 Norte 0 1010.8 -- 66
2020-11-06 17:00:00 22.2 4 Noroeste 8 Sudoeste 0 1010.6 -- 66
2020-11-06 16:00:00 21.9 3 Sudoeste 62 Este 0 1010.5 -- 68
2020-11-06 15:00:00 23.3 31 Este 52 Este 0 1009.3 -- 59
2020-11-06 14:00:00 22.6 28 Este 53 Este 0 1009.4 -- 63
2020-11-06 13:00:00 22.5 30 Este 54 Este 0 1010.3 -- 63
2020-11-06 12:00:00 22.7 22 Este 51 Este 0 1011.2 -- 64
2020-11-06 11:00:00 22.3 31 Este 56 Sudeste 0 1010.7 -0.6 63
2020-11-06 10:00:00 21.6 23 Este 39 Este 0 1011.6 -- 68
2020-11-06 09:00:00 21.4 19 Este 32 Este 0 1011.4 -- 69
2020-11-06 08:00:00 21.1 16 Este 35 Este 0 1011.3 -- 71
2020-11-06 07:00:00 21 19 Este 32 Este 0 1011.3 -- 69
2020-11-06 06:00:00 20.8 18 Este 30 Este 0 1011.5 -- 69
2020-11-06 05:00:00 19.4 10 Este 22 Este 0 1011.4 -- 71
2020-11-06 04:00:00 18.6 3 Noroeste 8 Noroeste 0 1011.4 -- 73
2020-11-06 03:00:00 19.5 3 Noroeste 13 Noroeste 0 1011.4 -- 68
2020-11-06 02:00:00 19.6 8 Noroeste 12 Noroeste 0 1012 -- 69
2020-11-06 01:00:00 20.4 7 Noroeste 19 Oeste 0 1012.5 -- 68
2020-11-06 00:00:00 20.7 9 Sudeste 33 Nordeste 0 1012.3 -- 71
2020-11-05 23:00:00 20.7 18 Este 41 Este 0 1012.6 -- 70
2020-11-05 22:00:00 20.8 23 Este 39 Este 0 1012.5 -- 69
2020-11-05 21:00:00 20.5 22 Este 33 Este 0 1012.4 -- 72
2020-11-05 20:00:00 20.5 15 Este 25 Nordeste 0 1012.5 -- 71
2020-11-05 19:00:00 20.4 13 Este 26 Este 0 1012.5 -- 71
2020-11-05 18:00:00 20 14 Este 25 Este 0 1012.2 -- 77
2020-11-05 17:00:00 19.9 17 Este 29 Este 0 1012.1 -- 87
2020-11-05 16:00:00 20 18 Este 28 Este 0 1012.1 -- 90
2020-11-05 15:00:00 20 14 Este 21 Este 0 1012.2 -- 93
2020-11-05 14:00:00 19.6 12 Sudeste 35 Sudeste 0 1012 -- 96
2020-11-05 13:00:00 19.2 19 Sudeste 31 Sur 0 1012.5 -- 97
2020-11-05 12:00:00 19.1 20 Sudeste 85 Sudeste 0 1013.5 -- 97
2020-11-05 11:00:00 19 32 Sudeste 53 Sudeste 0 1013.1 -- 98
2020-11-05 10:00:00 18.6 34 Sudeste -- -- -- 1013.4 -- 99
2020-11-05 09:00:00 -- -- -- -- -- -- -- -- --
2020-11-05 08:00:00 -- -- -- -- -- -- -- -- --
2020-11-05 07:00:00 -- -- -- -- -- -- -- -- --
2020-11-05 06:00:00 -- -- -- -- -- -- -- -- --
2020-11-05 05:00:00 -- -- -- -- -- -- -- -- --
2020-11-05 04:00:00 -- -- -- -- -- -- -- -- --
2020-11-05 03:00:00 -- -- -- -- -- -- -- -- --
2020-11-05 02:00:00 -- -- -- -- -- -- -- -- --
2020-11-05 01:00:00 -- -- -- -- -- -- -- -- --
2020-11-05 00:00:00 17.8 37 Sudeste 55 Sudeste 3.2 1011.7 -- 99
2020-11-04 23:00:00 18.8 32 Sudeste 43 Sudeste 1 1012 -- 98
2020-11-04 22:00:00 18.5 15 Este 26 Este 0 1012.7 -- 96
2020-11-04 21:00:00 18 15 Este 25 Este 0 1012.6 -- 93
2020-11-04 20:00:00 17.7 13 Nordeste 25 Este 0.1 1012.7 -- 92
2020-11-04 19:00:00 18.4 13 Este 21 Este 0 1013 -- 88
2020-11-04 18:00:00 18.6 6 Este 11 Sudeste 0 1012.8 -- 87
2020-11-04 17:00:00 18.9 7 Este 14 Sudeste 0 1013.4 -- 85
2020-11-04 16:00:00 19.4 5 Este 10 Sudeste 0 1013.6 -- 84
2020-11-04 15:00:00 19.6 8 Sudeste 13 Este 0 1013.9 -- 84
2020-11-04 14:00:00 19.7 9 Este 13 Este 0 1014.8 -- 82
2020-11-04 13:00:00 19.7 10 Este 15 Este 0 1015.8 -- 82
2020-11-04 12:00:00 19.1 9 Este 14 Este 0 1016.8 -- 85
2020-11-04 11:00:00 18.7 13 Este 18 Este 0 1017 -0.8 88
2020-11-04 10:00:00 18.2 5 Este 11 Este 0 1017.7 -- 89
2020-11-04 09:00:00 17.2 6 Noroeste 10 Oeste 0 1017.9 -- 89
2020-11-04 08:00:00 17.1 3 Noroeste 6 Noroeste 0 1017.8 -- 89
2020-11-04 07:00:00 17 0 Calma 8 Oeste 0 1018.1 -- 88
2020-11-04 06:00:00 17.5 2 Nordeste 10 Nordeste 0 1018.7 -- 88
2020-11-04 05:00:00 17.6 9 Este 14 Este 0 1019.3 -- 88
2020-11-04 04:00:00 17.4 7 Nordeste 14 Este 0 1019.8 -- 88
2020-11-04 03:00:00 16.7 10 Nordeste 24 Este 0 1020.5 -- 95
2020-11-04 02:00:00 17 14 Nordeste 26 Nordeste 0 1021 -- 97
2020-11-04 01:00:00 17.3 10 Nordeste 16 Nordeste 0 1021.8 -- 96
2020-11-04 00:00:00 16.4 0 Calma 6 Noroeste 0 1021.9 -- 94
2020-11-03 23:00:00 16.4 0 Calma 7 Noroeste 0 1022.1 -- 94
2020-11-03 22:00:00 16.5 0 Calma 6 Oeste 0 1021.9 -- 94
2020-11-03 21:00:00 16.7 3 Noroeste 5 Noroeste 0 1021.7 -- 94
2020-11-03 20:00:00 17.2 0 Calma 4 Sudoeste 0 1021.6 -- 93
2020-11-03 19:00:00 17.6 2 Sur 8 Sur 0 1021.2 -- 93
2020-11-03 18:00:00 18 3 Sudoeste 11 Sur 0 1021.1 -- 92
2020-11-03 17:00:00 18.3 9 Sur 13 Sur 0 1020.9 -- 91
2020-11-03 16:00:00 17.8 9 Sudoeste 15 Sur 0 1020.7 -- 92
2020-11-03 15:00:00 18.1 12 Sur 16 Sur 0 1020.9 -- 92
2020-11-03 14:00:00 17.8 10 Sudoeste 14 Sur 0 1021.5 -- 92
2020-11-03 13:00:00 17.7 7 Sur 13 Sur 0 1022.1 -- 92
2020-11-03 12:00:00 17 7 Sur 12 Sudoeste 0 1022.6 -- 95
2020-11-03 11:00:00 16.3 0 Calma 12 Oeste 0 1022.5 -- 98
2020-11-03 10:00:00 15.7 5 Noroeste 10 Oeste 0 1022.4 -- 99
2020-11-03 09:00:00 15.5 4 Noroeste 9 Oeste 0 1022 -- 99
2020-11-03 08:00:00 15.2 4 Oeste 10 Oeste 0 1021.4 -- 99
2020-11-03 07:00:00 13.9 3 Noroeste 10 Oeste 0 1021 -- 99
2020-11-03 06:00:00 14.2 4 Noroeste 8 Noroeste 0 1020.9 -- 99
2020-11-03 05:00:00 14.3 2 Noroeste 9 Noroeste 0 1020.7 -- 99
2020-11-03 04:00:00 15 6 Noroeste 12 Noroeste 0 1020.8 -- 99
2020-11-03 03:00:00 15.4 3 Oeste 8 Oeste 0 1021.1 -- 99
2020-11-03 02:00:00 15.8 2 Noroeste 9 Oeste 0 1021.1 -- 99
2020-11-03 01:00:00 16.4 3 Noroeste 10 Noroeste 0 1021.3 -- 97
2020-11-03 00:00:00 16.5 4 Noroeste 11 Oeste 0 1021.6 -- 96
2020-11-02 23:00:00 16.8 4 Noroeste 9 Oeste 0 1021.6 -- 96
2020-11-02 22:00:00 16.7 4 Noroeste 7 Noroeste 0 1021.7 -- 96
2020-11-02 21:00:00 17.1 0 Calma 3 Nordeste 0 1021.4 -- 97
2020-11-02 20:00:00 17.4 0 Calma 3 Nordeste 0 1021.3 -- 97
2020-11-02 19:00:00 17.5 0 Calma 5 Nordeste 0 1021 -- 96
2020-11-02 18:00:00 18.1 3 Nordeste 6 Este 0 1020.7 -- 94
2020-11-02 17:00:00 18.7 2 Este 7 Este 0 1020.7 -- 94
2020-11-02 16:00:00 18.5 5 Sudeste 8 Sudeste 0 1020.7 -- 95
2020-11-02 15:00:00 18.3 4 Este 10 Sudeste 0 1020.9 -- 96
2020-11-02 14:00:00 18 7 Sudeste 12 Sudeste 0 1021.7 -- 96
2020-11-02 13:00:00 17.2 8 Este 12 Este 0 1022.4 -- 97
2020-11-02 12:00:00 16.8 5 Este 9 Sudeste 0 1023 -- 99
2020-11-02 11:00:00 16.3 3 Sudeste 9 Este 0 1023 -- 99
2020-11-02 10:00:00 15.8 3 Sudeste 8 Noroeste 0 1022.8 -- 99
2020-11-02 09:00:00 14.6 4 Noroeste 8 Oeste 0 1022.2 -- 98
2020-11-02 08:00:00 14.5 3 Noroeste 5 Noroeste 0 1021.4 -- 94
2020-11-02 07:00:00 14.1 3 Noroeste 6 Noroeste 0 1021.2 -- 93
2020-11-02 06:00:00 14.4 2 Noroeste 6 Noroeste 0 1021.1 -- 93
2020-11-02 05:00:00 14.8 3 Noroeste 7 Noroeste 0 1021 -- 93
2020-11-02 04:00:00 14.8 4 Noroeste 7 Noroeste 0 1020.8 -- 93
2020-11-02 03:00:00 15 5 Noroeste 8 Noroeste 0 1021.2 -- 93
2020-11-02 02:00:00 15.5 6 Noroeste 9 Noroeste 0 1021.4 -- 94
2020-11-02 01:00:00 15.7 4 Noroeste 8 Oeste 0 1021.8 -- 94
2020-11-02 00:00:00 16.2 3 Noroeste 6 Oeste 0 1022.2 -- 94
2020-11-01 23:00:00 16.6 4 Noroeste 7 Noroeste 0 1022.4 -- 95
2020-11-01 22:00:00 17 0 Calma 6 Norte 0 1022.4 -- 95
2020-11-01 21:00:00 17.9 4 Norte 6 Norte 0 1022.2 -- 95
2020-11-01 20:00:00 18.2 0 Calma 6 Oeste 0 1022.1 -- 95
2020-11-01 19:00:00 18.6 0 Calma 8 Sudoeste 0 1021.7 -- 95
2020-11-01 18:00:00 18.8 5 Sudoeste 14 Sudoeste 0 1021.6 -- 94
2020-11-01 17:00:00 19.9 9 Sur 15 Sudoeste 0 1021.7 -- 94
2020-11-01 16:00:00 19.6 10 Sur 14 Sur 0 1022 -- 94
2020-11-01 15:00:00 19.1 6 Sudoeste 11 Sur 0 1022.5 -- 94
2020-11-01 14:00:00 19.4 7 Sur 10 Sur 0 1022.9 -- 93
2020-11-01 13:00:00 18.7 3 Sudeste 9 Sudeste 0 1023.5 -- 93
2020-11-01 12:00:00 18.4 8 Sudeste 11 Sudeste 0 1024.3 -- 93
2020-11-01 11:00:00 17.8 5 Sudeste 7 Sudeste 0 1024.3 -- 91
2020-11-01 10:00:00 16.4 3 Este 8 Este 0 1024 -- 87
2020-11-01 09:00:00 15.3 5 Noroeste 7 Noroeste 0 1023.4 -- 87
2020-11-01 08:00:00 14.8 3 Noroeste 9 Noroeste 0 1022.7 -- 87
2020-11-01 07:00:00 15.2 4 Noroeste 10 Noroeste 0 1022.2 -- 87
2020-11-01 06:00:00 15 2 Noroeste 8 Noroeste 0 1022.3 -- 88
2020-11-01 05:00:00 15.3 5 Noroeste 9 Noroeste 0 1022.5 -- 88
2020-11-01 04:00:00 15.2 5 Noroeste 10 Noroeste 0 1023.1 -- 88
2020-11-01 03:00:00 15.7 4 Noroeste 8 Noroeste 0 1023.4 -- 88
2020-11-01 02:00:00 15.8 3 Noroeste 6 Noroeste 0 1023.5 -- 88
2020-11-01 01:00:00 16.1 0 Calma 14 Oeste 0 1023.7 -- 87
2020-11-01 00:00:00 16.7 0 Calma 7 Noroeste 0 1023.9 -- 87
2020-10-31 23:00:00 17.3 0 Calma 9 Oeste 0 1024.1 -- 87
2020-10-31 22:00:00 17.6 5 Oeste 9 Oeste 0 1024.1 -- 89
2020-10-31 21:00:00 17.9 0 Calma 5 Norte 0 1023.5 -- 93
2020-10-31 20:00:00 18.6 0 Calma 6 Sur 0 1023 -- 91
2020-10-31 19:00:00 19.3 2 Sur 6 Sur 0 1022.9 -- 90
2020-10-31 18:00:00 20.1 6 Sur 10 Sur 0 1022.7 -- 88
2020-10-31 17:00:00 20.5 5 Sudoeste 10 Sur 0 1022.9 -- 88
2020-10-31 16:00:00 20.8 6 Sudoeste 9 Sur 0 1022.8 -- 89
2020-10-31 15:00:00 20.7 0 Calma 8 Sudeste 0 1023 -- 88
2020-10-31 14:00:00 20.3 2 Sur 5 Sur 0 1023.7 -- 88
2020-10-31 13:00:00 19.7 3 Sudoeste 8 Sur 0 1024.3 -- 89
2020-10-31 12:00:00 19.8 2 Sur 6 Sur 0 1024.8 -- 85
2020-10-31 11:00:00 19.7 6 Sur 9 Sur 0 1024.6 -- 82
2020-10-31 10:00:00 18 2 Oeste 6 Noroeste 0 1024.7 -- 80
2020-10-31 09:00:00 16.9 5 Noroeste 10 Noroeste 0 1024.4 -- 78
2020-10-31 08:00:00 16.2 4 Oeste 8 Oeste 0 1023.8 -- 79
2020-10-31 07:00:00 16.1 6 Oeste 12 Oeste 0 1023.8 -- 78
2020-10-31 06:00:00 16.5 6 Noroeste 14 Oeste 0 1023.4 -- 77
2020-10-31 05:00:00 16.3 7 Noroeste 13 Oeste 0 1023 -- 77
2020-10-31 04:00:00 16 5 Noroeste 9 Oeste 0 1023.2 -- 78
2020-10-31 03:00:00 16.3 2 Noroeste 12 Oeste 0 1023.6 -- 77
2020-10-31 02:00:00 16.6 4 Noroeste 10 Noroeste 0 1023.8 -- 78
2020-10-31 01:00:00 16.9 6 Noroeste 11 Oeste 0 1024.1 -- 77
2020-10-31 00:00:00 17.5 4 Noroeste 8 Noroeste 0 1024 -- 76
2020-10-30 23:00:00 17.5 3 Noroeste 6 Norte 0 1024.1 -- 78
2020-10-30 22:00:00 18.1 4 Noroeste 8 Norte 0 1023.8 -- 80
2020-10-30 21:00:00 18.6 0 Calma 15 Este 0 1023.5 -- 84
2020-10-30 20:00:00 19.2 11 Sudeste 15 Este 0 1023.4 -- 79
2020-10-30 19:00:00 19.2 5 Este 9 Este 0 1022.9 -- 73
2020-10-30 18:00:00 19.6 6 Este 9 Este 0 1022.9 -- 73
2020-10-30 17:00:00 20.4 4 Nordeste 10 Nordeste 0 1023 -- 71
2020-10-30 16:00:00 20.7 6 Nordeste 11 Nordeste 0 1023 -- 69
2020-10-30 15:00:00 20.6 7 Nordeste 13 Este 0 1023.2 -- 69
2020-10-30 14:00:00 20.4 5 Nordeste 11 Sudeste 0 1023.8 -- 73
2020-10-30 13:00:00 20.5 5 Este 12 Este 0 1024.5 -- 74
2020-10-30 12:00:00 19.7 7 Este 15 Este 0 1025 -- 77
2020-10-30 11:00:00 19.2 7 Este 17 Este 0 1025 -- 77
2020-10-30 10:00:00 18.3 6 Este 14 Este 0 1025 -- 77
2020-10-30 09:00:00 16.3 3 Norte 9 Noroeste 0 1024.9 -- 74
2020-10-30 08:00:00 15.2 5 Noroeste 10 Noroeste 0 1024.3 -- 74
2020-10-30 07:00:00 15.7 5 Noroeste 12 Este 0 1023.9 -- 75
2020-10-30 06:00:00 15.7 4 Norte 10 Norte 0 1023.8 -- 76
2020-10-30 05:00:00 16.3 4 Noroeste 14 Nordeste 0 1023.7 -- 76
2020-10-30 04:00:00 17.8 9 Nordeste 14 Este 0 1024 -- 77
2020-10-30 03:00:00 17.2 5 Nordeste 9 Norte 0 1024 -- 74
2020-10-30 02:00:00 17.2 3 Nordeste 12 Este 0 1024.3 -- 72
2020-10-30 01:00:00 18.4 9 Este 15 Este 0 1024.3 -- 73
2020-10-30 00:00:00 18.3 7 Este 13 Este 0 1024.6 -- 71
2020-10-29 23:00:00 18.5 4 Norte 18 Este 0 1024.3 -- 63
2020-10-29 22:00:00 18.4 5 Nordeste 14 Nordeste 0 1024.3 -- 65
2020-10-29 21:00:00 18.4 4 Nordeste 14 Este 0 1024.1 -- 70
2020-10-29 20:00:00 18.2 8 Este 13 Este 0 1024 -- 77
2020-10-29 19:00:00 18.9 2 Nordeste 14 Este 0 1023.6 -- 71
2020-10-29 18:00:00 20 11 Este 17 Este 0 1023.3 -- 63
2020-10-29 17:00:00 20 10 Este 16 Este 0 1023.4 -- 66
2020-10-29 16:00:00 19 10 Este 17 Sudeste 0 1023.3 -- 80
2020-10-29 15:00:00 18.8 14 Sudeste 20 Sudeste 0 1023.3 -- 82
2020-10-29 14:00:00 18.5 12 Este 23 Sudeste 0 1023.8 -- 84
2020-10-29 13:00:00 18.4 15 Este 20 Sudeste 0 1024.5 -- 82
2020-10-29 12:00:00 17.9 9 Este 16 Sudeste 0 1024.9 -- 85
2020-10-29 11:00:00 17.2 2 Sudeste 4 Sudeste 0 1025 -- 88
2020-10-29 10:00:00 16.4 0 Calma 6 Norte 0 1024.6 -- 82
2020-10-29 09:00:00 14.4 6 Noroeste 12 Noroeste 0 1024 -- 81
2020-10-29 08:00:00 13.6 7 Noroeste 10 Noroeste 0 1023.3 -- 82
2020-10-29 07:00:00 13.8 6 Noroeste 9 Noroeste 0 1022.9 -- 80
2020-10-29 06:00:00 13.7 4 Noroeste 9 Noroeste 0 1022.4 -- 80
2020-10-29 05:00:00 14 7 Noroeste 10 Noroeste 0 1022.3 -- 79
2020-10-29 04:00:00 14.4 5 Noroeste 11 Noroeste 0 1022.3 -- 78
2020-10-29 03:00:00 14.6 6 Noroeste 11 Noroeste 0 1022.5 -- 76
2020-10-29 02:00:00 14.9 4 Noroeste 8 Noroeste 0 1022.3 -- 77
2020-10-29 01:00:00 15.1 5 Noroeste 8 Noroeste 0 1022.4 -- 76
2020-10-29 00:00:00 15.6 4 Noroeste 10 Oeste 0 1022.3 -- 76
2020-10-28 23:00:00 16.1 3 Noroeste 7 Noroeste 0 1022.5 -- 77
2020-10-28 22:00:00 16.4 0 Calma 6 Noroeste 0 1022.2 -- 78
2020-10-28 21:00:00 16.8 0 Calma 5 Noroeste 0 1022 -- 80
2020-10-28 20:00:00 17.6 0 Calma 3 Sur 0 1021.4 -- 82
2020-10-28 19:00:00 17.8 0 Calma 3 Sur 0 1020.8 -- 79
2020-10-28 18:00:00 18.9 0 Calma 6 Sur 0 1020.5 -- 80
2020-10-28 17:00:00 19.6 3 Sur 5 Sur 0 1020.3 -- 78
2020-10-28 16:00:00 19.6 4 Sur 9 Sur 0 1020.5 -- 80
2020-10-28 15:00:00 18.6 5 Sudoeste 9 Sur 0 1020.7 -- 80
2020-10-28 14:00:00 18.8 4 Sur 9 Sur 0 1021 -- 79
2020-10-28 13:00:00 18.5 4 Sur 8 Sur 0 1021.4 -- 79
2020-10-28 12:00:00 18.6 5 Sudeste 11 Sudeste 0 1021.6 -- 80
2020-10-28 11:00:00 18.1 4 Nordeste 9 Nordeste 0 1021.3 -- 79
2020-10-28 10:00:00 17.6 5 Este 7 Este 0 1020.7 -- 72
2020-10-28 09:00:00 15.9 2 Norte 12 Noroeste 0 1020.2 -- 71
2020-10-28 08:00:00 15.1 4 Oeste 14 Noroeste 0 1019.2 -- 71
2020-10-28 07:00:00 15.2 4 Oeste 9 Oeste 0 1018.9 -- 70
2020-10-28 06:00:00 15.1 4 Noroeste 12 Oeste 0 1018.6 -- 64
2020-10-28 05:00:00 15.1 3 Noroeste 8 Noroeste 0 1018.4 -- 62
2020-10-28 04:00:00 15.7 3 Noroeste 7 Noroeste 0 1018.5 -- 59
2020-10-28 03:00:00 16 3 Norte 8 Oeste 0 1018.5 -- 59
2020-10-28 02:00:00 16.8 3 Noroeste 10 Oeste 0 1018.5 -- 57
2020-10-28 01:00:00 17 6 Oeste 12 Oeste 0 1018.6 -- 57
2020-10-28 00:00:00 16.8 0 Calma 10 Sur 0 1018.8 -- 60